sensor_id;sensor_type;location;lat;lon;timestamp;pressure;altitude;pressure_sealevel;temperature;humidity
57086;BME280;42964;42.910;23.792;2024-01-10T00:02:49;99149.31;;;-6.48;77.76
57086;BME280;42964;42.910;23.792;2024-01-10T00:07:48;99150.84;;;-6.50;77.90
57086;BME280;42964;42.910;23.792;2024-01-10T00:12:47;99134.91;;;-6.59;77.62
57086;BME280;42964;42.910;23.792;2024-01-10T00:17:46;99060.22;;;-7.05;76.74
57086;BME280;42964;42.910;23.792;2024-01-10T00:22:45;99155.88;;;-6.31;76.73
57086;BME280;42964;42.910;23.792;2024-01-10T00:27:44;99149.97;;;-6.21;77.37
57086;BME280;42964;42.910;23.792;2024-01-10T00:32:42;99143.69;;;-6.06;77.57
57086;BME280;42964;42.910;23.792;2024-01-10T00:37:41;99142.72;;;-6.08;77.85
57086;BME280;42964;42.910;23.792;2024-01-10T00:42:40;99142.97;;;-6.05;76.33
57086;BME280;42964;42.910;23.792;2024-01-10T00:47:39;99103.28;;;-6.45;75.78
57086;BME280;42964;42.910;23.792;2024-01-10T00:52:38;98958.88;;;-7.20;76.31
57086;BME280;42964;42.910;23.792;2024-01-10T00:57:37;99130.41;;;-6.14;76.78
57086;BME280;42964;42.910;23.792;2024-01-10T01:02:38;99137.38;;;-6.11;76.09
57086;BME280;42964;42.910;23.792;2024-01-10T01:07:40;99090.06;;;-6.33;76.87
57086;BME280;42964;42.910;23.792;2024-01-10T01:12:39;99151.09;;;-5.89;76.68
57086;BME280;42964;42.910;23.792;2024-01-10T01:17:38;99095.19;;;-6.12;78.26
57086;BME280;42964;42.910;23.792;2024-01-10T01:22:37;99144.31;;;-5.79;77.53
57086;BME280;42964;42.910;23.792;2024-01-10T01:27:36;99148.81;;;-5.96;76.48
57086;BME280;42964;42.910;23.792;2024-01-10T01:32:34;99129.94;;;-6.10;76.00
57086;BME280;42964;42.910;23.792;2024-01-10T01:37:33;98939.03;;;-7.26;76.89
57086;BME280;42964;42.910;23.792;2024-01-10T01:42:32;99126.38;;;-6.12;76.11
57086;BME280;42964;42.910;23.792;2024-01-10T01:47:31;98941.75;;;-7.33;77.48
57086;BME280;42964;42.910;23.792;2024-01-10T01:52:31;99104.78;;;-6.47;77.43
57086;BME280;42964;42.910;23.792;2024-01-10T01:57:30;99086.00;;;-6.41;77.28
57086;BME280;42964;42.910;23.792;2024-01-10T02:02:31;99105.75;;;-6.26;77.63
57086;BME280;42964;42.910;23.792;2024-01-10T02:07:30;99059.16;;;-6.59;76.94
57086;BME280;42964;42.910;23.792;2024-01-10T02:12:29;99112.94;;;-6.31;76.39
57086;BME280;42964;42.910;23.792;2024-01-10T02:17:28;99086.88;;;-6.40;76.67
57086;BME280;42964;42.910;23.792;2024-01-10T02:22:27;99109.72;;;-6.39;76.01
57086;BME280;42964;42.910;23.792;2024-01-10T02:27:26;99093.69;;;-6.68;76.69
57086;BME280;42964;42.910;23.792;2024-01-10T02:32:25;98976.31;;;-7.32;75.74
57086;BME280;42964;42.910;23.792;2024-01-10T02:37:24;99010.19;;;-7.20;76.54
57086;BME280;42964;42.910;23.792;2024-01-10T02:42:23;99053.59;;;-6.95;76.29
57086;BME280;42964;42.910;23.792;2024-01-10T02:47:22;99105.56;;;-6.67;76.89
57086;BME280;42964;42.910;23.792;2024-01-10T02:52:21;99027.59;;;-7.23;77.08
57086;BME280;42964;42.910;23.792;2024-01-10T02:57:20;99099.47;;;-6.69;77.90
57086;BME280;42964;42.910;23.792;2024-01-10T03:02:19;99109.47;;;-6.71;77.34
57086;BME280;42964;42.910;23.792;2024-01-10T03:07:18;99098.75;;;-6.68;77.87
57086;BME280;42964;42.910;23.792;2024-01-10T03:12:17;99096.88;;;-6.61;77.30
57086;BME280;42964;42.910;23.792;2024-01-10T03:17:15;98836.06;;;-8.17;77.75
57086;BME280;42964;42.910;23.792;2024-01-10T03:22:14;99095.13;;;-6.81;76.66
57086;BME280;42964;42.910;23.792;2024-01-10T03:27:13;99066.81;;;-6.97;76.98
57086;BME280;42964;42.910;23.792;2024-01-10T03:32:12;99092.09;;;-6.87;76.79
57086;BME280;42964;42.910;23.792;2024-01-10T03:37:12;99065.25;;;-7.05;76.54
57086;BME280;42964;42.910;23.792;2024-01-10T03:42:11;99042.16;;;-7.29;76.01
57086;BME280;42964;42.910;23.792;2024-01-10T03:47:09;99073.59;;;-7.06;76.78
57086;BME280;42964;42.910;23.792;2024-01-10T03:52:08;99068.03;;;-7.02;75.67
57086;BME280;42964;42.910;23.792;2024-01-10T03:57:07;99076.09;;;-7.25;76.22
57086;BME280;42964;42.910;23.792;2024-01-10T04:02:06;99082.88;;;-7.16;76.83
57086;BME280;42964;42.910;23.792;2024-01-10T04:07:06;99054.75;;;-7.29;77.01
57086;BME280;42964;42.910;23.792;2024-01-10T04:12:05;99096.34;;;-6.96;77.40
57086;BME280;42964;42.910;23.792;2024-01-10T04:17:04;99075.81;;;-7.09;77.99
57086;BME280;42964;42.910;23.792;2024-01-10T04:22:03;99088.44;;;-7.28;78.56
57086;BME280;42964;42.910;23.792;2024-01-10T04:27:02;99080.44;;;-7.33;78.15
57086;BME280;42964;42.910;23.792;2024-01-10T04:32:02;99106.03;;;-7.20;78.57
57086;BME280;42964;42.910;23.792;2024-01-10T04:37:01;99110.03;;;-7.22;79.28
57086;BME280;42964;42.910;23.792;2024-01-10T04:42:00;99107.78;;;-7.19;78.87
57086;BME280;42964;42.910;23.792;2024-01-10T04:46:59;99109.78;;;-7.25;78.80
57086;BME280;42964;42.910;23.792;2024-01-10T04:51:58;99027.53;;;-7.80;78.59
57086;BME280;42964;42.910;23.792;2024-01-10T04:56:57;99039.31;;;-7.70;78.65
57086;BME280;42964;42.910;23.792;2024-01-10T05:01:56;99102.63;;;-7.39;78.89
57086;BME280;42964;42.910;23.792;2024-01-10T05:06:55;99083.63;;;-7.44;78.76
57086;BME280;42964;42.910;23.792;2024-01-10T05:11:54;99105.28;;;-7.46;78.46
57086;BME280;42964;42.910;23.792;2024-01-10T05:16:53;99071.78;;;-8.01;77.96
57086;BME280;42964;42.910;23.792;2024-01-10T05:21:52;99125.50;;;-8.19;79.56
57086;BME280;42964;42.910;23.792;2024-01-10T05:26:52;99072.44;;;-8.57;79.54
57086;BME280;42964;42.910;23.792;2024-01-10T05:31:52;99132.94;;;-8.38;79.22
57086;BME280;42964;42.910;23.792;2024-01-10T05:36:50;99152.22;;;-8.38;79.81
57086;BME280;42964;42.910;23.792;2024-01-10T05:41:49;99147.50;;;-8.44;78.78
57086;BME280;42964;42.910;23.792;2024-01-10T05:46:49;99151.03;;;-8.68;79.51
57086;BME280;42964;42.910;23.792;2024-01-10T05:51:48;99159.06;;;-8.72;79.42
57086;BME280;42964;42.910;23.792;2024-01-10T05:56:47;99104.59;;;-9.15;80.12
57086;BME280;42964;42.910;23.792;2024-01-10T06:01:46;99136.13;;;-8.84;79.20
57086;BME280;42964;42.910;23.792;2024-01-10T06:06:45;99110.81;;;-8.94;80.51
57086;BME280;42964;42.910;23.792;2024-01-10T06:11:44;99162.91;;;-8.67;80.24
57086;BME280;42964;42.910;23.792;2024-01-10T06:16:44;99122.97;;;-8.81;80.35
57086;BME280;42964;42.910;23.792;2024-01-10T06:21:43;99147.22;;;-8.65;78.47
57086;BME280;42964;42.910;23.792;2024-01-10T06:26:42;99168.81;;;-8.58;79.82
57086;BME280;42964;42.910;23.792;2024-01-10T06:31:41;99179.19;;;-8.72;79.34
57086;BME280;42964;42.910;23.792;2024-01-10T06:36:40;99133.59;;;-8.75;78.68
57086;BME280;42964;42.910;23.792;2024-01-10T06:41:40;99157.84;;;-8.50;78.34
57086;BME280;42964;42.910;23.792;2024-01-10T06:46:38;99177.38;;;-8.38;79.20
57086;BME280;42964;42.910;23.792;2024-01-10T06:51:38;99147.34;;;-8.46;78.36
57086;BME280;42964;42.910;23.792;2024-01-10T06:56:37;99172.59;;;-8.18;79.36
57086;BME280;42964;42.910;23.792;2024-01-10T07:01:36;99153.97;;;-8.29;78.13
57086;BME280;42964;42.910;23.792;2024-01-10T07:06:35;99163.03;;;-8.48;77.06
57086;BME280;42964;42.910;23.792;2024-01-10T07:11:33;99091.16;;;-9.07;76.39
57086;BME280;42964;42.910;23.792;2024-01-10T07:16:32;99183.91;;;-8.40;76.74
57086;BME280;42964;42.910;23.792;2024-01-10T07:21:31;99194.25;;;-8.20;78.08
57086;BME280;42964;42.910;23.792;2024-01-10T07:26:30;99183.84;;;-8.06;77.62
57086;BME280;42964;42.910;23.792;2024-01-10T07:31:30;99198.88;;;-7.80;77.68
57086;BME280;42964;42.910;23.792;2024-01-10T07:36:29;99163.50;;;-7.90;78.08
57086;BME280;42964;42.910;23.792;2024-01-10T07:41:28;99183.13;;;-7.68;78.35
57086;BME280;42964;42.910;23.792;2024-01-10T07:46:27;98854.13;;;-9.32;77.94
57086;BME280;42964;42.910;23.792;2024-01-10T07:51:26;99178.91;;;-7.23;77.30
57086;BME280;42964;42.910;23.792;2024-01-10T07:56:25;98955.28;;;-8.45;76.96
57086;BME280;42964;42.910;23.792;2024-01-10T08:01:24;99143.72;;;-7.21;77.22
57086;BME280;42964;42.910;23.792;2024-01-10T08:06:23;99183.19;;;-6.84;76.92
57086;BME280;42964;42.910;23.792;2024-01-10T08:11:23;99103.03;;;-7.16;75.88
57086;BME280;42964;42.910;23.792;2024-01-10T08:16:23;99171.00;;;-6.79;75.74
57086;BME280;42964;42.910;23.792;2024-01-10T08:21:22;99168.25;;;-6.91;74.47
57086;BME280;42964;42.910;23.792;2024-01-10T08:26:21;99192.06;;;-6.79;74.69
57086;BME280;42964;42.910;23.792;2024-01-10T08:31:20;99152.09;;;-6.93;75.70
57086;BME280;42964;42.910;23.792;2024-01-10T08:36:19;99156.72;;;-6.79;74.80
57086;BME280;42964;42.910;23.792;2024-01-10T08:41:18;99196.38;;;-6.59;74.74
57086;BME280;42964;42.910;23.792;2024-01-10T08:46:18;99095.25;;;-7.08;75.41
57086;BME280;42964;42.910;23.792;2024-01-10T08:51:17;99185.47;;;-6.20;75.56
57086;BME280;42964;42.910;23.792;2024-01-10T08:56:15;99178.09;;;-6.08;75.01
57086;BME280;42964;42.910;23.792;2024-01-10T09:01:15;99160.50;;;-5.77;76.56
57086;BME280;42964;42.910;23.792;2024-01-10T09:06:14;99162.78;;;-5.60;72.90
57086;BME280;42964;42.910;23.792;2024-01-10T09:11:13;99119.34;;;-5.95;73.99
57086;BME280;42964;42.910;23.792;2024-01-10T09:16:12;99160.50;;;-5.67;72.60
57086;BME280;42964;42.910;23.792;2024-01-10T09:21:11;99155.34;;;-5.48;73.54
57086;BME280;42964;42.910;23.792;2024-01-10T09:26:10;99117.09;;;-5.92;73.41
57086;BME280;42964;42.910;23.792;2024-01-10T09:31:09;99134.09;;;-5.60;73.07
57086;BME280;42964;42.910;23.792;2024-01-10T09:36:08;99118.53;;;-5.55;73.45
57086;BME280;42964;42.910;23.792;2024-01-10T09:41:07;99151.56;;;-5.43;71.73
57086;BME280;42964;42.910;23.792;2024-01-10T09:46:07;99146.03;;;-5.18;71.10
57086;BME280;42964;42.910;23.792;2024-01-10T09:51:06;99126.25;;;-5.12;71.92
57086;BME280;42964;42.910;23.792;2024-01-10T09:56:06;99125.50;;;-4.91;71.37
57086;BME280;42964;42.910;23.792;2024-01-10T10:01:07;99103.47;;;-4.82;72.60
57086;BME280;42964;42.910;23.792;2024-01-10T10:06:07;99105.66;;;-4.54;71.85
57086;BME280;42964;42.910;23.792;2024-01-10T10:11:06;99059.88;;;-4.67;70.31
57086;BME280;42964;42.910;23.792;2024-01-10T10:16:05;99094.00;;;-4.52;70.28
57086;BME280;42964;42.910;23.792;2024-01-10T10:21:09;99092.53;;;-4.28;71.77
57086;BME280;42964;42.910;23.792;2024-01-10T10:26:16;99004.25;;;-4.66;68.48
57086;BME280;42964;42.910;23.792;2024-01-10T10:31:19;99000.03;;;-4.55;68.35
57086;BME280;42964;42.910;23.792;2024-01-10T10:36:19;99067.72;;;-3.88;69.41
57086;BME280;42964;42.910;23.792;2024-01-10T10:41:19;99049.53;;;-4.16;68.04
57086;BME280;42964;42.910;23.792;2024-01-10T10:46:18;99057.59;;;-3.88;67.30
57086;BME280;42964;42.910;23.792;2024-01-10T10:51:33;99045.47;;;-3.80;70.24
57086;BME280;42964;42.910;23.792;2024-01-10T10:56:33;99048.34;;;-3.42;68.68
57086;BME280;42964;42.910;23.792;2024-01-10T11:01:33;99036.47;;;-3.65;66.99
57086;BME280;42964;42.910;23.792;2024-01-10T11:06:33;99030.78;;;-3.62;66.32
57086;BME280;42964;42.910;23.792;2024-01-10T11:22:40;98996.31;;;-3.01;68.68
57086;BME280;42964;42.910;23.792;2024-01-10T11:27:42;98896.97;;;-3.41;67.22
57086;BME280;42964;42.910;23.792;2024-01-10T11:32:43;98988.47;;;-3.16;65.77
57086;BME280;42964;42.910;23.792;2024-01-10T11:37:43;98960.50;;;-3.51;65.54
57086;BME280;42964;42.910;23.792;2024-01-10T11:42:44;98935.34;;;-3.60;66.56
57086;BME280;42964;42.910;23.792;2024-01-10T11:47:44;98980.75;;;-3.29;66.73
57086;BME280;42964;42.910;23.792;2024-01-10T11:52:43;98974.75;;;-3.30;66.61
57086;BME280;42964;42.910;23.792;2024-01-10T11:57:42;98959.31;;;-3.21;65.44
57086;BME280;42964;42.910;23.792;2024-01-10T12:02:41;98919.81;;;-3.06;66.57
57086;BME280;42964;42.910;23.792;2024-01-10T12:07:40;98963.38;;;-2.76;63.62
57086;BME280;42964;42.910;23.792;2024-01-10T12:12:39;98946.22;;;-2.67;64.80
57086;BME280;42964;42.910;23.792;2024-01-10T12:17:38;98954.38;;;-2.47;65.24
57086;BME280;42964;42.910;23.792;2024-01-10T12:22:37;98948.97;;;-2.27;66.89
57086;BME280;42964;42.910;23.792;2024-01-10T12:27:36;98946.03;;;-2.08;65.10
57086;BME280;42964;42.910;23.792;2024-01-10T12:32:35;98945.00;;;-2.23;63.31
57086;BME280;42964;42.910;23.792;2024-01-10T12:37:34;98887.59;;;-2.70;60.50
57086;BME280;42964;42.910;23.792;2024-01-10T12:42:33;98950.41;;;-2.19;64.62
57086;BME280;42964;42.910;23.792;2024-01-10T12:47:34;98946.25;;;-2.05;65.52
57086;BME280;42964;42.910;23.792;2024-01-10T12:52:33;98903.84;;;-2.18;63.28
57086;BME280;42964;42.910;23.792;2024-01-10T12:57:38;98914.25;;;-2.01;64.14
57086;BME280;42964;42.910;23.792;2024-01-10T13:02:37;98915.44;;;-1.96;62.26
57086;BME280;42964;42.910;23.792;2024-01-10T13:07:36;98946.94;;;-1.69;63.45
57086;BME280;42964;42.910;23.792;2024-01-10T13:12:35;98928.59;;;-1.90;56.21
57086;BME280;42964;42.910;23.792;2024-01-10T13:17:34;98919.22;;;-2.16;53.77
57086;BME280;42964;42.910;23.792;2024-01-10T13:22:33;98944.03;;;-2.00;56.90
57086;BME280;42964;42.910;23.792;2024-01-10T13:27:32;98846.06;;;-2.45;57.10
57086;BME280;42964;42.910;23.792;2024-01-10T13:32:31;98937.75;;;-1.67;58.71
57086;BME280;42964;42.910;23.792;2024-01-10T13:37:30;98925.31;;;-2.01;55.24
57086;BME280;42964;42.910;23.792;2024-01-10T13:42:31;98938.19;;;-1.86;55.52
57086;BME280;42964;42.910;23.792;2024-01-10T13:47:32;98876.97;;;-2.14;60.91
57086;BME280;42964;42.910;23.792;2024-01-10T13:52:34;98941.97;;;-1.68;56.01
57086;BME280;42964;42.910;23.792;2024-01-10T13:57:33;98957.13;;;-1.69;59.28
57086;BME280;42964;42.910;23.792;2024-01-10T14:02:33;98951.59;;;-1.75;59.37
57086;BME280;42964;42.910;23.792;2024-01-10T14:07:34;98959.66;;;-1.69;62.26
57086;BME280;42964;42.910;23.792;2024-01-10T14:12:33;98956.13;;;-1.71;62.07
57086;BME280;42964;42.910;23.792;2024-01-10T14:17:32;98947.81;;;-1.82;63.43
57086;BME280;42964;42.910;23.792;2024-01-10T14:22:31;98940.00;;;-1.97;61.73
57086;BME280;42964;42.910;23.792;2024-01-10T14:27:30;98959.22;;;-1.89;63.52
57086;BME280;42964;42.910;23.792;2024-01-10T14:32:29;98954.97;;;-2.01;64.57
57086;BME280;42964;42.910;23.792;2024-01-10T14:37:28;98961.09;;;-2.11;63.27
57086;BME280;42964;42.910;23.792;2024-01-10T14:42:27;98967.78;;;-2.25;65.99
57086;BME280;42964;42.910;23.792;2024-01-10T14:47:26;98955.31;;;-2.34;65.93
57086;BME280;42964;42.910;23.792;2024-01-10T14:52:25;98929.44;;;-2.65;66.18
57086;BME280;42964;42.910;23.792;2024-01-10T14:57:24;98898.56;;;-2.95;67.06
57086;BME280;42964;42.910;23.792;2024-01-10T15:02:23;98958.41;;;-2.75;67.43
57086;BME280;42964;42.910;23.792;2024-01-10T15:07:22;98959.97;;;-2.88;67.85
57086;BME280;42964;42.910;23.792;2024-01-10T15:12:21;98932.63;;;-3.28;68.95
57086;BME280;42964;42.910;23.792;2024-01-10T15:17:20;98964.63;;;-3.18;68.77
57086;BME280;42964;42.910;23.792;2024-01-10T15:22:19;98933.25;;;-3.54;69.81
57086;BME280;42964;42.910;23.792;2024-01-10T15:27:18;98895.72;;;-3.82;70.22
57086;BME280;42964;42.910;23.792;2024-01-10T15:32:17;98968.31;;;-3.60;70.30
57086;BME280;42964;42.910;23.792;2024-01-10T15:37:16;98904.25;;;-4.15;70.78
57086;BME280;42964;42.910;23.792;2024-01-10T15:42:15;98931.72;;;-4.09;70.83
57086;BME280;42964;42.910;23.792;2024-01-10T15:47:14;98880.81;;;-4.46;71.32
57086;BME280;42964;42.910;23.792;2024-01-10T15:52:13;98972.53;;;-4.06;72.16
57086;BME280;42964;42.910;23.792;2024-01-10T15:57:12;98961.56;;;-4.17;72.80
57086;BME280;42964;42.910;23.792;2024-01-10T16:02:11;98962.16;;;-4.31;72.18
57086;BME280;42964;42.910;23.792;2024-01-10T16:07:10;98904.78;;;-4.75;72.83
57086;BME280;42964;42.910;23.792;2024-01-10T16:12:12;98969.56;;;-4.45;73.20
57086;BME280;42964;42.910;23.792;2024-01-10T16:17:11;98965.16;;;-4.47;74.30
57086;BME280;42964;42.910;23.792;2024-01-10T16:22:09;98874.81;;;-5.03;73.75
57086;BME280;42964;42.910;23.792;2024-01-10T16:27:08;98965.31;;;-4.56;74.00
57086;BME280;42964;42.910;23.792;2024-01-10T16:32:07;98903.13;;;-4.96;74.74
57086;BME280;42964;42.910;23.792;2024-01-10T16:37:06;98954.16;;;-4.70;74.10
57086;BME280;42964;42.910;23.792;2024-01-10T16:42:07;98938.03;;;-4.92;75.53
57086;BME280;42964;42.910;23.792;2024-01-10T16:47:07;98950.66;;;-4.82;75.30
57086;BME280;42964;42.910;23.792;2024-01-10T16:52:07;98970.25;;;-4.79;74.66
57086;BME280;42964;42.910;23.792;2024-01-10T16:57:06;98973.06;;;-4.87;74.50
57086;BME280;42964;42.910;23.792;2024-01-10T17:02:04;98942.16;;;-5.05;74.71
57086;BME280;42964;42.910;23.792;2024-01-10T17:07:03;98969.44;;;-5.00;74.63
57086;BME280;42964;42.910;23.792;2024-01-10T17:12:02;98967.75;;;-5.12;75.26
57086;BME280;42964;42.910;23.792;2024-01-10T17:17:02;98938.41;;;-5.20;75.86
57086;BME280;42964;42.910;23.792;2024-01-10T17:22:00;98936.28;;;-5.36;76.18
57086;BME280;42964;42.910;23.792;2024-01-10T17:26:59;98967.47;;;-5.15;76.72
57086;BME280;42964;42.910;23.792;2024-01-10T17:31:59;98971.00;;;-5.13;76.49
57086;BME280;42964;42.910;23.792;2024-01-10T17:36:58;98974.06;;;-5.17;77.13
57086;BME280;42964;42.910;23.792;2024-01-10T17:41:56;98989.66;;;-5.22;77.46
57086;BME280;42964;42.910;23.792;2024-01-10T17:46:55;98993.59;;;-5.26;77.86
57086;BME280;42964;42.910;23.792;2024-01-10T17:51:54;98993.81;;;-5.23;77.79
57086;BME280;42964;42.910;23.792;2024-01-10T17:56:53;98986.88;;;-5.36;77.11
57086;BME280;42964;42.910;23.792;2024-01-10T18:01:52;98984.34;;;-5.36;77.83
57086;BME280;42964;42.910;23.792;2024-01-10T18:06:51;98971.34;;;-5.51;77.90
57086;BME280;42964;42.910;23.792;2024-01-10T18:11:49;98979.69;;;-5.41;77.21
57086;BME280;42964;42.910;23.792;2024-01-10T18:16:49;98966.28;;;-5.40;77.58
57086;BME280;42964;42.910;23.792;2024-01-10T18:21:48;98965.78;;;-5.47;77.86
57086;BME280;42964;42.910;23.792;2024-01-10T18:26:47;98973.88;;;-5.51;77.70
57086;BME280;42964;42.910;23.792;2024-01-10T18:31:46;98962.91;;;-5.51;77.83
57086;BME280;42964;42.910;23.792;2024-01-10T18:36:45;98846.34;;;-6.17;77.93
57086;BME280;42964;42.910;23.792;2024-01-10T18:41:44;98957.09;;;-5.60;77.93
57086;BME280;42964;42.910;23.792;2024-01-10T18:46:43;98962.16;;;-5.60;78.90
57086;BME280;42964;42.910;23.792;2024-01-10T18:51:42;98963.03;;;-5.60;78.83
57086;BME280;42964;42.910;23.792;2024-01-10T18:56:40;98942.94;;;-5.79;78.82
57086;BME280;42964;42.910;23.792;2024-01-10T19:01:39;98965.19;;;-5.64;79.02
57086;BME280;42964;42.910;23.792;2024-01-10T19:06:38;98940.91;;;-5.83;79.14
57086;BME280;42964;42.910;23.792;2024-01-10T19:11:37;98958.63;;;-5.83;78.76
57086;BME280;42964;42.910;23.792;2024-01-10T19:16:36;98940.78;;;-6.15;79.83
57086;BME280;42964;42.910;23.792;2024-01-10T19:21:36;98812.22;;;-7.04;79.44
57086;BME280;42964;42.910;23.792;2024-01-10T19:26:36;98970.50;;;-6.02;79.52
57086;BME280;42964;42.910;23.792;2024-01-10T19:31:35;98973.41;;;-6.08;80.36
57086;BME280;42964;42.910;23.792;2024-01-10T19:36:33;98957.47;;;-6.07;79.80
57086;BME280;42964;42.910;23.792;2024-01-10T19:41:33;98950.53;;;-5.99;79.56
57086;BME280;42964;42.910;23.792;2024-01-10T19:46:32;98947.78;;;-6.13;79.34
57086;BME280;42964;42.910;23.792;2024-01-10T19:51:30;98951.78;;;-6.25;79.14
57086;BME280;42964;42.910;23.792;2024-01-10T19:56:29;98952.91;;;-6.32;79.69
57086;BME280;42964;42.910;23.792;2024-01-10T20:01:30;98950.91;;;-6.25;79.77
57086;BME280;42964;42.910;23.792;2024-01-10T20:06:29;98944.19;;;-6.25;79.80
57086;BME280;42964;42.910;23.792;2024-01-10T20:11:28;98935.59;;;-6.37;80.19
57086;BME280;42964;42.910;23.792;2024-01-10T20:16:27;98944.44;;;-6.32;79.78
57086;BME280;42964;42.910;23.792;2024-01-10T20:21:26;98937.75;;;-6.42;80.28
57086;BME280;42964;42.910;23.792;2024-01-10T20:26:25;98905.16;;;-6.59;80.25
57086;BME280;42964;42.910;23.792;2024-01-10T20:31:25;98903.50;;;-6.59;80.05
57086;BME280;42964;42.910;23.792;2024-01-10T20:36:23;98885.06;;;-6.78;80.11
57086;BME280;42964;42.910;23.792;2024-01-10T20:41:23;98875.06;;;-6.87;79.49
57086;BME280;42964;42.910;23.792;2024-01-10T20:46:21;98923.47;;;-6.62;79.83
57086;BME280;42964;42.910;23.792;2024-01-10T20:51:20;98892.25;;;-6.83;79.55
57086;BME280;42964;42.910;23.792;2024-01-10T20:56:19;98922.69;;;-6.71;79.81
57086;BME280;42964;42.910;23.792;2024-01-10T21:01:19;98882.63;;;-6.97;79.92
57086;BME280;42964;42.910;23.792;2024-01-10T21:06:18;98881.31;;;-7.12;80.13
57086;BME280;42964;42.910;23.792;2024-01-10T21:11:17;98922.97;;;-6.97;80.52
57086;BME280;42964;42.910;23.792;2024-01-10T21:16:16;98889.16;;;-7.09;80.34
57086;BME280;42964;42.910;23.792;2024-01-10T21:21:16;98925.13;;;-7.02;80.64
57086;BME280;42964;42.910;23.792;2024-01-10T21:26:14;98834.19;;;-7.43;80.32
57086;BME280;42964;42.910;23.792;2024-01-10T21:31:13;98914.66;;;-7.06;79.86
57086;BME280;42964;42.910;23.792;2024-01-10T21:36:12;98913.13;;;-7.04;80.40
57086;BME280;42964;42.910;23.792;2024-01-10T21:41:11;98927.03;;;-6.99;80.68
57086;BME280;42964;42.910;23.792;2024-01-10T21:46:11;98946.81;;;-7.04;80.52
57086;BME280;42964;42.910;23.792;2024-01-10T21:51:11;98920.69;;;-7.04;80.67
57086;BME280;42964;42.910;23.792;2024-01-10T21:56:10;98881.16;;;-7.24;80.35
57086;BME280;42964;42.910;23.792;2024-01-10T22:01:08;98920.44;;;-7.07;80.40
57086;BME280;42964;42.910;23.792;2024-01-10T22:06:07;98902.88;;;-7.16;80.06
57086;BME280;42964;42.910;23.792;2024-01-10T22:11:06;98888.50;;;-7.17;80.79
57086;BME280;42964;42.910;23.792;2024-01-10T22:16:05;98892.91;;;-7.14;80.48
57086;BME280;42964;42.910;23.792;2024-01-10T22:21:05;98876.75;;;-7.27;80.22
57086;BME280;42964;42.910;23.792;2024-01-10T22:26:05;98865.59;;;-7.39;80.38
57086;BME280;42964;42.910;23.792;2024-01-10T22:31:04;98888.88;;;-7.23;79.93
57086;BME280;42964;42.910;23.792;2024-01-10T22:36:04;98884.41;;;-7.25;80.88
57086;BME280;42964;42.910;23.792;2024-01-10T22:41:03;98883.53;;;-7.26;80.28
57086;BME280;42964;42.910;23.792;2024-01-10T22:46:03;98880.28;;;-7.25;80.58
57086;BME280;42964;42.910;23.792;2024-01-10T22:51:03;98876.25;;;-7.23;80.72
57086;BME280;42964;42.910;23.792;2024-01-10T22:56:02;98844.75;;;-7.47;79.71
57086;BME280;42964;42.910;23.792;2024-01-10T23:01:02;98860.81;;;-7.36;79.53
57086;BME280;42964;42.910;23.792;2024-01-10T23:06:02;98849.69;;;-7.48;79.48
57086;BME280;42964;42.910;23.792;2024-01-10T23:11:04;98838.50;;;-7.61;79.86
57086;BME280;42964;42.910;23.792;2024-01-10T23:16:03;98837.31;;;-7.55;79.82
57086;BME280;42964;42.910;23.792;2024-01-10T23:21:03;98850.94;;;-7.72;80.81
57086;BME280;42964;42.910;23.792;2024-01-10T23:26:05;98853.16;;;-8.05;79.89
57086;BME280;42964;42.910;23.792;2024-01-10T23:31:05;98812.09;;;-8.41;80.29
57086;BME280;42964;42.910;23.792;2024-01-10T23:36:11;98804.63;;;-8.31;79.98
57086;BME280;42964;42.910;23.792;2024-01-10T23:41:10;98832.66;;;-7.99;80.76
57086;BME280;42964;42.910;23.792;2024-01-10T23:46:09;98821.41;;;-8.03;79.83
57086;BME280;42964;42.910;23.792;2024-01-10T23:51:08;98828.22;;;-8.02;79.63
57086;BME280;42964;42.910;23.792;2024-01-10T23:56:08;98814.81;;;-8.11;79.73
